RCH3416 ETAR-ENOL
Flight info
| Callsign | RCH3416 |
|---|---|
| Flight time | 3h 3m |
| Altitude | 25000 |
| Route | RUDOT Q760 NVO DCT BASUM M170 ELSOB N125 EKERN M852 ALS P615 NEDZA P601 PIVAT DCT OSKOK DCT NELSU |
| Aircraft | C30J/M-SDE2E3FGHIRWY/H |
Departure
| Time | 2026-04-18 21:19 |
|---|---|
| Airport | Ramstein Air Base (ETAR) |
Arrival
| Time | 2026-04-19 00:23 |
|---|---|
| Airport | Ørland Airport (ENOL) |
| Time | Latitude | Longitude | Altitude | Speed | Heading |
|---|---|---|---|---|---|
| 2026-04-18 21:10 | 49.44304 | 7.61627 | 769 ft | 0 kts | 266° |
| 2026-04-18 21:16 | 49.44304 | 7.61622 | 769 ft | 2 kts | 266° |
| 2026-04-18 21:16 | 49.44296 | 7.61577 | 769 ft | 6 kts | 237° |
| 2026-04-18 21:16 | 49.44248 | 7.61561 | 769 ft | 7 kts | 180° |
| 2026-04-18 21:16 | 49.44200 | 7.61564 | 769 ft | 8 kts | 175° |
| 2026-04-18 21:17 | 49.44139 | 7.61562 | 769 ft | 9 kts | 195° |
| 2026-04-18 21:17 | 49.44084 | 7.61540 | 769 ft | 8 kts | 180° |
| 2026-04-18 21:17 | 49.44024 | 7.61546 | 769 ft | 9 kts | 175° |
| 2026-04-18 21:17 | 49.43961 | 7.61552 | 769 ft | 9 kts | 176° |
| 2026-04-18 21:18 | 49.43893 | 7.61559 | 769 ft | 10 kts | 177° |
| 2026-04-18 21:18 | 49.43820 | 7.61566 | 767 ft | 11 kts | 175° |
| 2026-04-18 21:18 | 49.43762 | 7.61534 | 766 ft | 9 kts | 252° |
| 2026-04-18 21:18 | 49.43755 | 7.61493 | 766 ft | 8 kts | 257° |
| 2026-04-18 21:19 | 49.43731 | 7.61077 | 766 ft | 81 kts | 266° |
| 2026-04-18 21:19 | 49.43682 | 7.59847 | 770 ft | 148 kts | 266° |
| 2026-04-18 21:19 | 49.43611 | 7.58211 | 1123 ft | 165 kts | 266° |
| 2026-04-18 21:19 | 49.43851 | 7.56438 | 1602 ft | 177 kts | 290° |
| 2026-04-18 21:20 | 49.44011 | 7.54449 | 2052 ft | 199 kts | 269° |
| 2026-04-18 21:20 | 49.44006 | 7.52248 | 2539 ft | 210 kts | 281° |
| 2026-04-18 21:20 | 49.44401 | 7.50110 | 3066 ft | 209 kts | 294° |
| 2026-04-18 21:20 | 49.44982 | 7.48101 | 3585 ft | 208 kts | 297° |
| 2026-04-18 21:21 | 49.45622 | 7.46107 | 4132 ft | 209 kts | 295° |
| 2026-04-18 21:21 | 49.46099 | 7.44039 | 4671 ft | 209 kts | 284° |
| 2026-04-18 21:21 | 49.46378 | 7.41844 | 5228 ft | 209 kts | 279° |
| 2026-04-18 21:21 | 49.46606 | 7.39641 | 5770 ft | 208 kts | 278° |
| 2026-04-18 21:22 | 49.46830 | 7.37460 | 6329 ft | 210 kts | 278° |
| 2026-04-18 21:22 | 49.47067 | 7.35212 | 6890 ft | 211 kts | 278° |
| 2026-04-18 21:22 | 49.47305 | 7.32981 | 7447 ft | 212 kts | 278° |
| 2026-04-18 21:22 | 49.47547 | 7.30745 | 8024 ft | 212 kts | 278° |
| 2026-04-18 21:23 | 49.47789 | 7.28530 | 8589 ft | 213 kts | 279° |
| 2026-04-18 21:23 | 49.48035 | 7.26274 | 9206 ft | 214 kts | 279° |
| 2026-04-18 21:23 | 49.48283 | 7.24004 | 9764 ft | 216 kts | 279° |
| 2026-04-18 21:23 | 49.48532 | 7.21724 | 10262 ft | 216 kts | 279° |
| 2026-04-18 21:24 | 49.48782 | 7.19442 | 10729 ft | 217 kts | 279° |
| 2026-04-18 21:24 | 49.49030 | 7.17159 | 11232 ft | 217 kts | 278° |
| 2026-04-18 21:24 | 49.49280 | 7.14861 | 11738 ft | 218 kts | 278° |
| 2026-04-18 21:24 | 49.49530 | 7.12560 | 12265 ft | 219 kts | 278° |
| 2026-04-18 21:25 | 49.49776 | 7.10293 | 12769 ft | 219 kts | 278° |
| 2026-04-18 21:25 | 49.50027 | 7.07975 | 13310 ft | 220 kts | 278° |
| 2026-04-18 21:25 | 49.50279 | 7.05647 | 13863 ft | 221 kts | 278° |
| 2026-04-18 21:25 | 49.50762 | 7.03412 | 14279 ft | 227 kts | 301° |
| 2026-04-18 21:26 | 49.52002 | 7.01878 | 14644 ft | 238 kts | 333° |
| 2026-04-18 21:26 | 49.53611 | 7.01150 | 15042 ft | 243 kts | 342° |
| 2026-04-18 21:26 | 49.55270 | 7.00583 | 15435 ft | 245 kts | 342° |
| 2026-04-18 21:26 | 49.56941 | 7.00029 | 15841 ft | 247 kts | 342° |
| 2026-04-18 21:27 | 49.58628 | 6.99475 | 16268 ft | 249 kts | 342° |
| 2026-04-18 21:27 | 49.60329 | 6.98918 | 16698 ft | 251 kts | 342° |
| 2026-04-18 21:27 | 49.62046 | 6.98358 | 17136 ft | 253 kts | 342° |
| 2026-04-18 21:27 | 49.63771 | 6.97795 | 17579 ft | 254 kts | 342° |
| 2026-04-18 21:28 | 49.65500 | 6.97232 | 18024 ft | 255 kts | 341° |
| 2026-04-18 21:28 | 49.67239 | 6.96665 | 18453 ft | 256 kts | 341° |
| 2026-04-18 21:28 | 49.68981 | 6.96097 | 18840 ft | 256 kts | 341° |
| 2026-04-18 21:28 | 49.70712 | 6.95559 | 19215 ft | 258 kts | 344° |
| 2026-04-18 21:29 | 49.72517 | 6.95190 | 19597 ft | 259 kts | 346° |
| 2026-04-18 21:29 | 49.74289 | 6.94884 | 19985 ft | 260 kts | 346° |
| 2026-04-18 21:29 | 49.76081 | 6.94575 | 20360 ft | 260 kts | 346° |
| 2026-04-18 21:29 | 49.77876 | 6.94261 | 20750 ft | 260 kts | 346° |
| 2026-04-18 21:30 | 49.79673 | 6.93946 | 21115 ft | 260 kts | 345° |
| 2026-04-18 21:30 | 49.81450 | 6.93632 | 21466 ft | 260 kts | 345° |
| 2026-04-18 21:30 | 49.83246 | 6.93314 | 21816 ft | 260 kts | 345° |
| 2026-04-18 21:30 | 49.85038 | 6.92996 | 22180 ft | 260 kts | 345° |
| 2026-04-18 21:31 | 49.86837 | 6.92677 | 22519 ft | 260 kts | 345° |
| 2026-04-18 21:31 | 49.88633 | 6.92357 | 22861 ft | 260 kts | 344° |
| 2026-04-18 21:31 | 49.90433 | 6.92037 | 23200 ft | 260 kts | 344° |
| 2026-04-18 21:31 | 49.92225 | 6.91719 | 23529 ft | 260 kts | 344° |
| 2026-04-18 21:32 | 49.94024 | 6.91398 | 23832 ft | 260 kts | 344° |
| 2026-04-18 21:32 | 49.95814 | 6.91079 | 24090 ft | 260 kts | 343° |
| 2026-04-18 21:32 | 49.97612 | 6.90758 | 24345 ft | 259 kts | 343° |
| 2026-04-18 21:32 | 49.99401 | 6.90434 | 24622 ft | 259 kts | 342° |
| 2026-04-18 21:33 | 50.01157 | 6.90032 | 24849 ft | 257 kts | 340° |
| 2026-04-18 21:33 | 50.02926 | 6.89586 | 25083 ft | 258 kts | 340° |
| 2026-04-18 21:33 | 50.04724 | 6.89129 | 25157 ft | 266 kts | 340° |
| 2026-04-18 21:33 | 50.06588 | 6.88658 | 25170 ft | 276 kts | 341° |
| 2026-04-18 21:34 | 50.08513 | 6.88179 | 25179 ft | 285 kts | 341° |
| 2026-04-18 21:34 | 50.10497 | 6.87689 | 25175 ft | 292 kts | 341° |
| 2026-04-18 21:34 | 50.12532 | 6.87191 | 25188 ft | 299 kts | 341° |
| 2026-04-18 21:34 | 50.14615 | 6.86681 | 25180 ft | 306 kts | 341° |
| 2026-04-18 21:35 | 50.16738 | 6.86162 | 25171 ft | 311 kts | 342° |
| 2026-04-18 21:35 | 50.18900 | 6.85634 | 25174 ft | 316 kts | 342° |
| 2026-04-18 21:35 | 50.21085 | 6.85100 | 25168 ft | 317 kts | 342° |
| 2026-04-18 21:35 | 50.23261 | 6.84569 | 25171 ft | 316 kts | 342° |
| 2026-04-18 21:36 | 50.25431 | 6.84036 | 25166 ft | 315 kts | 342° |
| 2026-04-18 21:36 | 50.27571 | 6.83510 | 25188 ft | 316 kts | 342° |
| 2026-04-18 21:36 | 50.29751 | 6.82972 | 25167 ft | 317 kts | 342° |
| 2026-04-18 21:36 | 50.31922 | 6.82438 | 25173 ft | 316 kts | 342° |
| 2026-04-18 21:37 | 50.34093 | 6.81903 | 25180 ft | 316 kts | 342° |
| 2026-04-18 21:37 | 50.36268 | 6.81366 | 25164 ft | 317 kts | 342° |
| 2026-04-18 21:37 | 50.38444 | 6.80829 | 25170 ft | 316 kts | 342° |
| 2026-04-18 21:37 | 50.40619 | 6.80291 | 25166 ft | 316 kts | 342° |
| 2026-04-18 21:38 | 50.42793 | 6.79753 | 25170 ft | 316 kts | 342° |
| 2026-04-18 21:38 | 50.44962 | 6.79215 | 25182 ft | 316 kts | 342° |
| 2026-04-18 21:38 | 50.47138 | 6.78671 | 25180 ft | 317 kts | 342° |
| 2026-04-18 21:38 | 50.49321 | 6.78127 | 25171 ft | 317 kts | 342° |
| 2026-04-18 21:39 | 50.51497 | 6.77586 | 25181 ft | 318 kts | 342° |
| 2026-04-18 21:39 | 50.53682 | 6.77041 | 25181 ft | 318 kts | 342° |
| 2026-04-18 21:39 | 50.55866 | 6.76497 | 25182 ft | 318 kts | 342° |
| 2026-04-18 21:39 | 50.58047 | 6.75953 | 25173 ft | 317 kts | 342° |
| 2026-04-18 21:40 | 50.60208 | 6.75323 | 25181 ft | 314 kts | 338° |
| 2026-04-18 21:40 | 50.62294 | 6.74391 | 25186 ft | 310 kts | 333° |
| 2026-04-18 21:40 | 50.64346 | 6.73325 | 25190 ft | 309 kts | 333° |
| 2026-04-18 21:40 | 50.66385 | 6.72244 | 25190 ft | 309 kts | 332° |
| 2026-04-18 21:41 | 50.68418 | 6.71156 | 25191 ft | 309 kts | 332° |
| 2026-04-18 21:41 | 50.70461 | 6.70057 | 25199 ft | 311 kts | 332° |
| 2026-04-18 21:41 | 50.72508 | 6.68953 | 25193 ft | 311 kts | 332° |
| 2026-04-18 21:41 | 50.74553 | 6.67848 | 25194 ft | 310 kts | 332° |
| 2026-04-18 21:42 | 50.76571 | 6.66755 | 25195 ft | 311 kts | 332° |
| 2026-04-18 21:42 | 50.78612 | 6.65649 | 25195 ft | 311 kts | 332° |
| 2026-04-18 21:42 | 50.80729 | 6.64831 | 25192 ft | 322 kts | 348° |
| 2026-04-18 21:42 | 50.83003 | 6.65269 | 25193 ft | 340 kts | 13° |
| 2026-04-18 21:43 | 50.85156 | 6.66926 | 25199 ft | 348 kts | 25° |
| 2026-04-18 21:43 | 50.87223 | 6.68925 | 25197 ft | 348 kts | 27° |
| 2026-04-18 21:43 | 50.89266 | 6.71002 | 25195 ft | 348 kts | 28° |
| 2026-04-18 21:43 | 50.91297 | 6.73106 | 25196 ft | 349 kts | 28° |
| 2026-04-18 21:44 | 50.93323 | 6.75227 | 25192 ft | 349 kts | 29° |
| 2026-04-18 21:44 | 50.95343 | 6.77350 | 25193 ft | 349 kts | 29° |
| 2026-04-18 21:44 | 50.97362 | 6.79477 | 25193 ft | 349 kts | 29° |
| 2026-04-18 21:44 | 50.99373 | 6.81600 | 25191 ft | 349 kts | 29° |
| 2026-04-18 21:45 | 51.01397 | 6.83738 | 25190 ft | 349 kts | 29° |
| 2026-04-18 21:45 | 51.03418 | 6.85877 | 25189 ft | 349 kts | 29° |
| 2026-04-18 21:45 | 51.05437 | 6.88014 | 25189 ft | 349 kts | 29° |
| 2026-04-18 21:45 | 51.07461 | 6.90159 | 25191 ft | 349 kts | 29° |
| 2026-04-18 21:46 | 51.09482 | 6.92305 | 25193 ft | 349 kts | 29° |
| 2026-04-18 21:46 | 51.11504 | 6.94453 | 25192 ft | 349 kts | 29° |
| 2026-04-18 21:46 | 51.13522 | 6.96599 | 25218 ft | 350 kts | 29° |
| 2026-04-18 21:46 | 51.15554 | 6.98761 | 25194 ft | 352 kts | 29° |
| 2026-04-18 21:47 | 51.17583 | 7.00925 | 25191 ft | 350 kts | 29° |
| 2026-04-18 21:47 | 51.19614 | 7.03092 | 25193 ft | 351 kts | 29° |
| 2026-04-18 21:47 | 51.21634 | 7.05249 | 25191 ft | 351 kts | 29° |
| 2026-04-18 21:47 | 51.23662 | 7.07418 | 25192 ft | 351 kts | 29° |
| 2026-04-18 21:48 | 51.25688 | 7.09586 | 25192 ft | 351 kts | 29° |
| 2026-04-18 21:48 | 51.27716 | 7.11760 | 25194 ft | 351 kts | 29° |
| 2026-04-18 21:48 | 51.29744 | 7.13935 | 25191 ft | 351 kts | 29° |
| 2026-04-18 21:48 | 51.31759 | 7.16099 | 25190 ft | 351 kts | 29° |
| 2026-04-18 21:49 | 51.33758 | 7.18248 | 25167 ft | 351 kts | 29° |
| 2026-04-18 21:49 | 51.35772 | 7.20417 | 25206 ft | 348 kts | 29° |
| 2026-04-18 21:49 | 51.37781 | 7.22581 | 25195 ft | 348 kts | 29° |
| 2026-04-18 21:49 | 51.39791 | 7.24749 | 25185 ft | 349 kts | 29° |
| 2026-04-18 21:50 | 51.41803 | 7.26920 | 25192 ft | 348 kts | 29° |
| 2026-04-18 21:50 | 51.43812 | 7.29092 | 25190 ft | 348 kts | 30° |
| 2026-04-18 21:50 | 51.45821 | 7.31266 | 25189 ft | 348 kts | 30° |
| 2026-04-18 21:50 | 51.47817 | 7.33429 | 25187 ft | 348 kts | 30° |
| 2026-04-18 21:51 | 51.49830 | 7.35611 | 25191 ft | 348 kts | 30° |
| 2026-04-18 21:51 | 51.51834 | 7.37787 | 25190 ft | 349 kts | 30° |
| 2026-04-18 21:51 | 51.53842 | 7.39969 | 25189 ft | 348 kts | 30° |
| 2026-04-18 21:51 | 51.55850 | 7.42154 | 25191 ft | 348 kts | 30° |
| 2026-04-18 21:52 | 51.57857 | 7.44340 | 25200 ft | 348 kts | 30° |
| 2026-04-18 21:52 | 51.59858 | 7.46521 | 25186 ft | 346 kts | 30° |
| 2026-04-18 21:52 | 51.61851 | 7.48697 | 25187 ft | 346 kts | 30° |
| 2026-04-18 21:52 | 51.63838 | 7.50868 | 25195 ft | 347 kts | 30° |
| 2026-04-18 21:53 | 51.65826 | 7.53043 | 25193 ft | 347 kts | 30° |
| 2026-04-18 21:53 | 51.67821 | 7.55228 | 25192 ft | 347 kts | 30° |
| 2026-04-18 21:53 | 51.69821 | 7.57420 | 25194 ft | 347 kts | 30° |
| 2026-04-18 21:53 | 51.71815 | 7.59609 | 25193 ft | 347 kts | 30° |
| 2026-04-18 21:54 | 51.73805 | 7.61795 | 25190 ft | 347 kts | 30° |
| 2026-04-18 21:54 | 51.75800 | 7.63989 | 25191 ft | 347 kts | 30° |
| 2026-04-18 21:54 | 51.77790 | 7.66180 | 25191 ft | 347 kts | 30° |
| 2026-04-18 21:54 | 51.79784 | 7.68378 | 25213 ft | 347 kts | 31° |
| 2026-04-18 21:55 | 51.81768 | 7.70569 | 25185 ft | 344 kts | 31° |
| 2026-04-18 21:55 | 51.83076 | 7.72014 | 25184 ft | 343 kts | 31° |
| 2026-04-18 21:55 | 51.85045 | 7.74190 | 25191 ft | 344 kts | 31° |
| 2026-04-18 21:55 | 51.87022 | 7.76378 | 25182 ft | 344 kts | 31° |
| 2026-04-18 21:56 | 51.88998 | 7.78567 | 25187 ft | 344 kts | 31° |
| 2026-04-18 21:56 | 51.90974 | 7.80759 | 25186 ft | 344 kts | 31° |
| 2026-04-18 21:56 | 51.93584 | 7.83657 | 25170 ft | 343 kts | 31° |
| 2026-04-18 21:56 | 51.94910 | 7.85132 | 25179 ft | 343 kts | 31° |
| 2026-04-18 21:57 | 51.96876 | 7.87319 | 25181 ft | 343 kts | 31° |
| 2026-04-18 21:57 | 51.98848 | 7.89515 | 25182 ft | 343 kts | 31° |
| 2026-04-18 21:57 | 52.00792 | 7.91684 | 25182 ft | 343 kts | 31° |
| 2026-04-18 21:57 | 52.02779 | 7.93902 | 25202 ft | 342 kts | 31° |
| 2026-04-18 21:58 | 52.04729 | 7.96082 | 25184 ft | 340 kts | 31° |
| 2026-04-18 21:58 | 52.06681 | 7.98265 | 25192 ft | 341 kts | 31° |
| 2026-04-18 21:58 | 52.08615 | 8.00431 | 25187 ft | 342 kts | 31° |
| 2026-04-18 21:58 | 52.10566 | 8.02619 | 25189 ft | 341 kts | 31° |
| 2026-04-18 21:59 | 52.12545 | 8.04840 | 25189 ft | 341 kts | 31° |
| 2026-04-18 21:59 | 52.14473 | 8.07007 | 25187 ft | 341 kts | 31° |
| 2026-04-18 21:59 | 52.16427 | 8.09204 | 25189 ft | 341 kts | 31° |
| 2026-04-18 21:59 | 52.18379 | 8.11403 | 25180 ft | 341 kts | 31° |
| 2026-04-18 22:00 | 52.20331 | 8.13603 | 25190 ft | 341 kts | 31° |
| 2026-04-18 22:00 | 52.22285 | 8.15809 | 25190 ft | 342 kts | 31° |
| 2026-04-18 22:00 | 52.24236 | 8.18012 | 25200 ft | 342 kts | 32° |
| 2026-04-18 22:00 | 52.26182 | 8.20213 | 25188 ft | 341 kts | 32° |
| 2026-04-18 22:01 | 52.28129 | 8.22418 | 25184 ft | 341 kts | 32° |
| 2026-04-18 22:01 | 52.30075 | 8.24625 | 25183 ft | 341 kts | 32° |
| 2026-04-18 22:01 | 52.32022 | 8.26833 | 25179 ft | 341 kts | 32° |
| 2026-04-18 22:01 | 52.33968 | 8.29044 | 25187 ft | 341 kts | 32° |
| 2026-04-18 22:02 | 52.35910 | 8.31252 | 25181 ft | 341 kts | 32° |
| 2026-04-18 22:02 | 52.37854 | 8.33466 | 25183 ft | 340 kts | 32° |
| 2026-04-18 22:02 | 52.39799 | 8.35682 | 25186 ft | 341 kts | 32° |
| 2026-04-18 22:02 | 52.41743 | 8.37901 | 25179 ft | 341 kts | 32° |
| 2026-04-18 22:03 | 52.43687 | 8.40121 | 25182 ft | 341 kts | 32° |
| 2026-04-18 22:03 | 52.45631 | 8.42344 | 25180 ft | 340 kts | 32° |
| 2026-04-18 22:03 | 52.47570 | 8.44564 | 25194 ft | 342 kts | 32° |
| 2026-04-18 22:03 | 52.49525 | 8.46803 | 25181 ft | 343 kts | 32° |
| 2026-04-18 22:04 | 52.51478 | 8.49044 | 25178 ft | 342 kts | 32° |
| 2026-04-18 22:04 | 52.53426 | 8.51282 | 25161 ft | 341 kts | 32° |
| 2026-04-18 22:04 | 52.55318 | 8.53458 | 25176 ft | 337 kts | 32° |
| 2026-04-18 22:04 | 52.57238 | 8.55668 | 25185 ft | 338 kts | 32° |
| 2026-04-18 22:05 | 52.59165 | 8.57888 | 25188 ft | 338 kts | 32° |
| 2026-04-18 22:05 | 52.61091 | 8.60110 | 25186 ft | 338 kts | 32° |
| 2026-04-18 22:05 | 52.63017 | 8.62334 | 25186 ft | 338 kts | 32° |
| 2026-04-18 22:05 | 52.64938 | 8.64555 | 25178 ft | 338 kts | 32° |
| 2026-04-18 22:06 | 52.66863 | 8.66782 | 25178 ft | 338 kts | 32° |
| 2026-04-18 22:06 | 52.68783 | 8.69008 | 25179 ft | 338 kts | 32° |
| 2026-04-18 22:06 | 52.70713 | 8.71245 | 25186 ft | 340 kts | 33° |
| 2026-04-18 22:06 | 52.72650 | 8.73495 | 25179 ft | 340 kts | 33° |
| 2026-04-18 22:07 | 52.74585 | 8.75744 | 25177 ft | 340 kts | 33° |
| 2026-04-18 22:07 | 52.76519 | 8.77989 | 25176 ft | 340 kts | 32° |
| 2026-04-18 22:07 | 52.78518 | 8.80057 | 25176 ft | 339 kts | 27° |
| 2026-04-18 22:07 | 52.80544 | 8.81953 | 25177 ft | 338 kts | 26° |
| 2026-04-18 22:08 | 52.82629 | 8.83850 | 25177 ft | 338 kts | 25° |
| 2026-04-18 22:08 | 52.84673 | 8.85691 | 25176 ft | 338 kts | 25° |
| 2026-04-18 22:08 | 52.86729 | 8.87534 | 25173 ft | 338 kts | 25° |
| 2026-04-18 22:08 | 52.88798 | 8.89388 | 25174 ft | 338 kts | 25° |
| 2026-04-18 22:09 | 52.90863 | 8.91238 | 25172 ft | 338 kts | 25° |
| 2026-04-18 22:09 | 52.92933 | 8.93093 | 25180 ft | 339 kts | 25° |
| 2026-04-18 22:09 | 52.95013 | 8.94960 | 25171 ft | 340 kts | 25° |
| 2026-04-18 22:09 | 52.97117 | 8.96851 | 25169 ft | 340 kts | 25° |
| 2026-04-18 22:10 | 52.99168 | 8.98695 | 25170 ft | 340 kts | 25° |
| 2026-04-18 22:10 | 53.01246 | 9.00567 | 25170 ft | 340 kts | 25° |
| 2026-04-18 22:10 | 53.03329 | 9.02446 | 25170 ft | 340 kts | 25° |
| 2026-04-18 22:10 | 53.05393 | 9.04309 | 25171 ft | 340 kts | 25° |
| 2026-04-18 22:11 | 53.07475 | 9.06192 | 25169 ft | 340 kts | 25° |
| 2026-04-18 22:11 | 53.09543 | 9.08063 | 25171 ft | 340 kts | 25° |
| 2026-04-18 22:11 | 53.11620 | 9.09946 | 25172 ft | 340 kts | 25° |
| 2026-04-18 22:11 | 53.13692 | 9.11826 | 25172 ft | 340 kts | 25° |
| 2026-04-18 22:12 | 53.17836 | 9.15592 | 25173 ft | 340 kts | 25° |
| 2026-04-18 22:12 | 53.19911 | 9.17482 | 25174 ft | 340 kts | 25° |
| 2026-04-18 22:12 | 53.21972 | 9.19361 | 25174 ft | 340 kts | 25° |
| 2026-04-18 22:13 | 53.24047 | 9.21255 | 25175 ft | 340 kts | 25° |
| 2026-04-18 22:13 | 53.26121 | 9.23151 | 25176 ft | 340 kts | 25° |
| 2026-04-18 22:13 | 53.28196 | 9.25050 | 25176 ft | 340 kts | 25° |
| 2026-04-18 22:13 | 53.30274 | 9.26954 | 25162 ft | 339 kts | 25° |
| 2026-04-18 22:14 | 53.32329 | 9.28840 | 25171 ft | 336 kts | 25° |
| 2026-04-18 22:14 | 53.34376 | 9.30720 | 25174 ft | 336 kts | 25° |
| 2026-04-18 22:14 | 53.36429 | 9.32606 | 25174 ft | 337 kts | 25° |
| 2026-04-18 22:14 | 53.38476 | 9.34491 | 25183 ft | 337 kts | 25° |
| 2026-04-18 22:15 | 53.40528 | 9.36381 | 25171 ft | 337 kts | 25° |
| 2026-04-18 22:15 | 53.42583 | 9.38277 | 25170 ft | 337 kts | 25° |
| 2026-04-18 22:15 | 53.44637 | 9.40175 | 25169 ft | 337 kts | 25° |
| 2026-04-18 22:15 | 53.46664 | 9.42049 | 25170 ft | 337 kts | 25° |
| 2026-04-18 22:16 | 53.48717 | 9.43951 | 25169 ft | 337 kts | 25° |
| 2026-04-18 22:16 | 53.50787 | 9.45811 | 25168 ft | 336 kts | 24° |
| 2026-04-18 22:16 | 53.52868 | 9.47572 | 25168 ft | 336 kts | 23° |
| 2026-04-18 22:16 | 53.54961 | 9.49329 | 25169 ft | 336 kts | 23° |
| 2026-04-18 22:17 | 53.57044 | 9.51078 | 25166 ft | 336 kts | 23° |
| 2026-04-18 22:17 | 53.59136 | 9.52837 | 25166 ft | 336 kts | 23° |
| 2026-04-18 22:17 | 53.61226 | 9.54597 | 25166 ft | 336 kts | 23° |
| 2026-04-18 22:17 | 53.63326 | 9.56332 | 25171 ft | 336 kts | 20° |
| 2026-04-18 22:18 | 53.65502 | 9.57715 | 25169 ft | 333 kts | 13° |
| 2026-04-18 22:18 | 53.67733 | 9.58719 | 25166 ft | 331 kts | 8° |
| 2026-04-18 22:18 | 53.69981 | 9.59536 | 25155 ft | 330 kts | 7° |
| 2026-04-18 22:18 | 53.72233 | 9.60318 | 25165 ft | 330 kts | 7° |
| 2026-04-18 22:19 | 53.74480 | 9.61084 | 25160 ft | 330 kts | 7° |
| 2026-04-18 22:19 | 53.76728 | 9.61844 | 25164 ft | 330 kts | 6° |
| 2026-04-18 22:19 | 53.78981 | 9.62603 | 25163 ft | 330 kts | 6° |
| 2026-04-18 22:19 | 53.81234 | 9.63361 | 25162 ft | 330 kts | 6° |
| 2026-04-18 22:20 | 53.83487 | 9.64120 | 25161 ft | 330 kts | 6° |
| 2026-04-18 22:20 | 53.85740 | 9.64878 | 25161 ft | 330 kts | 6° |
| 2026-04-18 22:20 | 53.87997 | 9.65639 | 25157 ft | 331 kts | 6° |
| 2026-04-18 22:20 | 53.90216 | 9.66388 | 25153 ft | 331 kts | 7° |
| 2026-04-18 22:21 | 53.92479 | 9.67153 | 25157 ft | 331 kts | 7° |
| 2026-04-18 22:21 | 53.94737 | 9.67917 | 25159 ft | 331 kts | 7° |
| 2026-04-18 22:21 | 53.96995 | 9.68682 | 25158 ft | 331 kts | 7° |
| 2026-04-18 22:21 | 53.99249 | 9.69446 | 25154 ft | 331 kts | 7° |
| 2026-04-18 22:22 | 54.01512 | 9.70215 | 25152 ft | 331 kts | 7° |
| 2026-04-18 22:22 | 54.03770 | 9.70982 | 25157 ft | 331 kts | 7° |
| 2026-04-18 22:22 | 54.06028 | 9.71751 | 25154 ft | 331 kts | 7° |
| 2026-04-18 22:22 | 54.08285 | 9.72520 | 25150 ft | 331 kts | 7° |
| 2026-04-18 22:23 | 54.10549 | 9.73292 | 25162 ft | 331 kts | 7° |
| 2026-04-18 22:23 | 54.12810 | 9.74065 | 25154 ft | 332 kts | 7° |
| 2026-04-18 22:23 | 54.15071 | 9.74838 | 25145 ft | 331 kts | 7° |
| 2026-04-18 22:23 | 54.17331 | 9.75612 | 25144 ft | 331 kts | 7° |
| 2026-04-18 22:24 | 54.19592 | 9.76387 | 25145 ft | 331 kts | 7° |
| 2026-04-18 22:24 | 54.21824 | 9.77153 | 25145 ft | 331 kts | 7° |
| 2026-04-18 22:24 | 54.24075 | 9.77927 | 25138 ft | 331 kts | 7° |
| 2026-04-18 22:24 | 54.26337 | 9.78675 | 25145 ft | 331 kts | 6° |
| 2026-04-18 22:25 | 54.28608 | 9.79394 | 25137 ft | 331 kts | 6° |
| 2026-04-18 22:25 | 54.30873 | 9.80111 | 25144 ft | 331 kts | 6° |
| 2026-04-18 22:25 | 54.33138 | 9.80829 | 25144 ft | 331 kts | 6° |
| 2026-04-18 22:25 | 54.35397 | 9.81548 | 25155 ft | 331 kts | 6° |
| 2026-04-18 22:26 | 54.37663 | 9.82269 | 25146 ft | 331 kts | 6° |
| 2026-04-18 22:26 | 54.39930 | 9.82991 | 25161 ft | 331 kts | 6° |
| 2026-04-18 22:26 | 54.42190 | 9.83713 | 25160 ft | 331 kts | 6° |
| 2026-04-18 22:26 | 54.44460 | 9.84438 | 25160 ft | 331 kts | 6° |
| 2026-04-18 22:27 | 54.46727 | 9.85163 | 25161 ft | 331 kts | 6° |
| 2026-04-18 22:27 | 54.48995 | 9.85889 | 25163 ft | 333 kts | 6° |
| 2026-04-18 22:27 | 54.51286 | 9.86623 | 25162 ft | 337 kts | 6° |
| 2026-04-18 22:27 | 54.53604 | 9.87363 | 25163 ft | 340 kts | 6° |
| 2026-04-18 22:28 | 54.55926 | 9.88106 | 25156 ft | 339 kts | 6° |
| 2026-04-18 22:28 | 54.58242 | 9.88845 | 25158 ft | 341 kts | 6° |
| 2026-04-18 22:28 | 54.60586 | 9.89592 | 25169 ft | 344 kts | 6° |
| 2026-04-18 22:28 | 54.62950 | 9.90348 | 25158 ft | 347 kts | 6° |
| 2026-04-18 22:29 | 54.65292 | 9.91098 | 25150 ft | 346 kts | 6° |
| 2026-04-18 22:29 | 54.67658 | 9.91866 | 25146 ft | 346 kts | 6° |
| 2026-04-18 22:29 | 54.70025 | 9.92639 | 25145 ft | 346 kts | 6° |
| 2026-04-18 22:29 | 54.72425 | 9.93421 | 25143 ft | 346 kts | 6° |
| 2026-04-18 22:30 | 54.74777 | 9.94188 | 25144 ft | 346 kts | 6° |
| 2026-04-18 22:30 | 54.77144 | 9.94960 | 25143 ft | 346 kts | 6° |
| 2026-04-18 22:30 | 54.79223 | 9.95639 | 25144 ft | 346 kts | 6° |
| 2026-04-18 22:30 | 54.81591 | 9.96414 | 25142 ft | 346 kts | 6° |
| 2026-04-18 22:31 | 54.83958 | 9.97189 | 25146 ft | 346 kts | 6° |
| 2026-04-18 22:31 | 54.86325 | 9.97964 | 25179 ft | 346 kts | 6° |
| 2026-04-18 22:31 | 54.88701 | 9.98713 | 25164 ft | 346 kts | 4° |
| 2026-04-18 22:31 | 54.91073 | 9.99142 | 25164 ft | 343 kts | 359° |
| 2026-04-18 22:32 | 54.93465 | 9.99280 | 25167 ft | 342 kts | 356° |
| 2026-04-18 22:32 | 54.95843 | 9.99323 | 25165 ft | 342 kts | 355° |
| 2026-04-18 22:32 | 54.98220 | 9.99345 | 25165 ft | 341 kts | 355° |
| 2026-04-18 22:32 | 55.00565 | 9.99356 | 25165 ft | 342 kts | 355° |
| 2026-04-18 22:33 | 55.02942 | 9.99362 | 25164 ft | 341 kts | 355° |
| 2026-04-18 22:33 | 55.05318 | 9.99366 | 25163 ft | 341 kts | 355° |
| 2026-04-18 22:33 | 55.07690 | 9.99369 | 25161 ft | 341 kts | 355° |
| 2026-04-18 22:33 | 55.10061 | 9.99372 | 25159 ft | 341 kts | 355° |
| 2026-04-18 22:34 | 55.12442 | 9.99374 | 25161 ft | 341 kts | 355° |
| 2026-04-18 22:34 | 55.14818 | 9.99376 | 25154 ft | 341 kts | 355° |
| 2026-04-18 22:34 | 55.17193 | 9.99378 | 25152 ft | 341 kts | 355° |
| 2026-04-18 22:34 | 55.19568 | 9.99380 | 25149 ft | 341 kts | 355° |
| 2026-04-18 22:35 | 55.21943 | 9.99382 | 25148 ft | 341 kts | 355° |
| 2026-04-18 22:35 | 55.24313 | 9.99384 | 25145 ft | 341 kts | 355° |
| 2026-04-18 22:35 | 55.26683 | 9.99387 | 25142 ft | 341 kts | 355° |
| 2026-04-18 22:35 | 55.29058 | 9.99389 | 25137 ft | 341 kts | 355° |
| 2026-04-18 22:36 | 55.31433 | 9.99391 | 25135 ft | 341 kts | 355° |
| 2026-04-18 22:36 | 55.33814 | 9.99393 | 25163 ft | 341 kts | 355° |
| 2026-04-18 22:36 | 55.36195 | 9.99394 | 25143 ft | 345 kts | 355° |
| 2026-04-18 22:36 | 55.38610 | 9.99396 | 25142 ft | 347 kts | 355° |
| 2026-04-18 22:37 | 55.41026 | 9.99400 | 25134 ft | 347 kts | 355° |
| 2026-04-18 22:37 | 55.43434 | 9.99403 | 25135 ft | 347 kts | 355° |
| 2026-04-18 22:37 | 55.45846 | 9.99406 | 25135 ft | 347 kts | 355° |
| 2026-04-18 22:37 | 55.48260 | 9.99409 | 25132 ft | 347 kts | 355° |
| 2026-04-18 22:38 | 55.50641 | 9.99412 | 25132 ft | 347 kts | 355° |
| 2026-04-18 22:38 | 55.53080 | 9.99415 | 25130 ft | 347 kts | 355° |
| 2026-04-18 22:38 | 55.55465 | 9.99418 | 25131 ft | 347 kts | 355° |
| 2026-04-18 22:38 | 55.57909 | 9.99420 | 25131 ft | 347 kts | 355° |
| 2026-04-18 22:39 | 55.60310 | 9.99423 | 25130 ft | 347 kts | 355° |
| 2026-04-18 22:39 | 55.62695 | 9.99424 | 25129 ft | 347 kts | 355° |
| 2026-04-18 22:39 | 55.65135 | 9.99426 | 25130 ft | 347 kts | 355° |
| 2026-04-18 22:39 | 55.67547 | 9.99427 | 25130 ft | 347 kts | 355° |
| 2026-04-18 22:40 | 55.69927 | 9.99429 | 25127 ft | 347 kts | 355° |
| 2026-04-18 22:40 | 55.72338 | 9.99430 | 25125 ft | 346 kts | 355° |
| 2026-04-18 22:40 | 55.74749 | 9.99432 | 25128 ft | 347 kts | 355° |
| 2026-04-18 22:40 | 55.77161 | 9.99433 | 25128 ft | 347 kts | 355° |
| 2026-04-18 22:41 | 55.79574 | 9.99435 | 25123 ft | 347 kts | 355° |
| 2026-04-18 22:41 | 55.81986 | 9.99436 | 25125 ft | 347 kts | 355° |
| 2026-04-18 22:41 | 55.84403 | 9.99438 | 25125 ft | 347 kts | 355° |
| 2026-04-18 22:41 | 55.86816 | 9.99440 | 25123 ft | 347 kts | 355° |
| 2026-04-18 22:42 | 55.89228 | 9.99441 | 25127 ft | 347 kts | 355° |
| 2026-04-18 22:42 | 55.91643 | 9.99443 | 25139 ft | 348 kts | 355° |
| 2026-04-18 22:42 | 55.94069 | 9.99444 | 25126 ft | 349 kts | 355° |
| 2026-04-18 22:42 | 55.96482 | 9.99446 | 25128 ft | 348 kts | 355° |
| 2026-04-18 22:43 | 55.98087 | 9.99447 | 25127 ft | 348 kts | 355° |
| 2026-04-18 22:43 | 56.00510 | 9.99446 | 25128 ft | 348 kts | 355° |
| 2026-04-18 22:43 | 56.02934 | 9.99446 | 25127 ft | 348 kts | 355° |
| 2026-04-18 22:43 | 56.05358 | 9.99446 | 25126 ft | 348 kts | 355° |
| 2026-04-18 22:44 | 56.07780 | 9.99446 | 25122 ft | 348 kts | 355° |
| 2026-04-18 22:44 | 56.10205 | 9.99446 | 25125 ft | 348 kts | 355° |
| 2026-04-18 22:44 | 56.12612 | 9.99448 | 25124 ft | 348 kts | 355° |
| 2026-04-18 22:44 | 56.15035 | 9.99451 | 25120 ft | 348 kts | 355° |
| 2026-04-18 22:45 | 56.17458 | 9.99454 | 25133 ft | 348 kts | 356° |
| 2026-04-18 22:45 | 56.19883 | 9.99457 | 25130 ft | 349 kts | 356° |
| 2026-04-18 22:45 | 56.22308 | 9.99460 | 25119 ft | 348 kts | 356° |
| 2026-04-18 22:45 | 56.24736 | 9.99463 | 25120 ft | 348 kts | 356° |
| 2026-04-18 22:46 | 56.27166 | 9.99466 | 25119 ft | 348 kts | 356° |
| 2026-04-18 22:46 | 56.29580 | 9.99469 | 25123 ft | 348 kts | 356° |
| 2026-04-18 22:46 | 56.31972 | 9.99472 | 25119 ft | 348 kts | 356° |
| 2026-04-18 22:46 | 56.34396 | 9.99475 | 25117 ft | 348 kts | 356° |
| 2026-04-18 22:47 | 56.36820 | 9.99478 | 25116 ft | 348 kts | 356° |
| 2026-04-18 22:47 | 56.39238 | 9.99481 | 25114 ft | 348 kts | 356° |
| 2026-04-18 22:47 | 56.41668 | 9.99484 | 25115 ft | 348 kts | 356° |
| 2026-04-18 22:47 | 56.44097 | 9.99487 | 25124 ft | 348 kts | 356° |
| 2026-04-18 22:48 | 56.46525 | 9.99490 | 25118 ft | 349 kts | 356° |
| 2026-04-18 22:48 | 56.48941 | 9.99493 | 25114 ft | 349 kts | 356° |
| 2026-04-18 22:48 | 56.51377 | 9.99496 | 25111 ft | 349 kts | 356° |
| 2026-04-18 22:48 | 56.53808 | 9.99500 | 25113 ft | 349 kts | 356° |
| 2026-04-18 22:49 | 56.56234 | 9.99502 | 25116 ft | 349 kts | 356° |
| 2026-04-18 22:49 | 56.58665 | 9.99505 | 25116 ft | 349 kts | 356° |
| 2026-04-18 22:49 | 56.61096 | 9.99507 | 25117 ft | 349 kts | 356° |
| 2026-04-18 22:49 | 56.63533 | 9.99509 | 25115 ft | 349 kts | 356° |
| 2026-04-18 22:50 | 56.65959 | 9.99512 | 25115 ft | 349 kts | 356° |
| 2026-04-18 22:50 | 56.68390 | 9.99514 | 25113 ft | 349 kts | 356° |
| 2026-04-18 22:50 | 56.70821 | 9.99517 | 25119 ft | 349 kts | 356° |
| 2026-04-18 22:50 | 56.73253 | 9.99519 | 25115 ft | 350 kts | 356° |
| 2026-04-18 22:51 | 56.75686 | 9.99522 | 25114 ft | 350 kts | 356° |
| 2026-04-18 22:51 | 56.78118 | 9.99524 | 25109 ft | 349 kts | 356° |
| 2026-04-18 22:51 | 56.80550 | 9.99527 | 25106 ft | 349 kts | 356° |
| 2026-04-18 22:51 | 56.82941 | 9.99529 | 25108 ft | 350 kts | 356° |
| 2026-04-18 22:52 | 56.85380 | 9.99532 | 25110 ft | 350 kts | 356° |
| 2026-04-18 22:52 | 56.87822 | 9.99534 | 25119 ft | 353 kts | 356° |
| 2026-04-18 22:52 | 56.90290 | 9.99535 | 25104 ft | 355 kts | 356° |
| 2026-04-18 22:52 | 56.92757 | 9.99539 | 25104 ft | 354 kts | 356° |
| 2026-04-18 22:53 | 56.95220 | 9.99542 | 25107 ft | 354 kts | 356° |
| 2026-04-18 22:53 | 56.97685 | 9.99544 | 25114 ft | 354 kts | 356° |
| 2026-04-18 22:53 | 57.00142 | 9.99547 | 25114 ft | 355 kts | 357° |
| 2026-04-18 22:53 | 57.02612 | 9.99549 | 25116 ft | 355 kts | 357° |
| 2026-04-18 22:54 | 57.05076 | 9.99552 | 25117 ft | 355 kts | 357° |
| 2026-04-18 22:54 | 57.07548 | 9.99555 | 25117 ft | 355 kts | 357° |
| 2026-04-18 22:54 | 57.10011 | 9.99570 | 25112 ft | 355 kts | 359° |
| 2026-04-18 22:54 | 57.12483 | 9.99798 | 25116 ft | 356 kts | 1° |
| 2026-04-18 22:55 | 57.14954 | 10.00103 | 25112 ft | 356 kts | 1° |
| 2026-04-18 22:55 | 57.17412 | 10.00404 | 25111 ft | 356 kts | 1° |
| 2026-04-18 22:55 | 57.19881 | 10.00704 | 25111 ft | 356 kts | 1° |
| 2026-04-18 22:55 | 57.22351 | 10.01004 | 25109 ft | 356 kts | 1° |
| 2026-04-18 22:56 | 57.24822 | 10.01304 | 25111 ft | 356 kts | 1° |
| 2026-04-18 22:56 | 57.27295 | 10.01603 | 25109 ft | 356 kts | 2° |
| 2026-04-18 22:56 | 57.29766 | 10.01904 | 25105 ft | 356 kts | 2° |
| 2026-04-18 22:56 | 57.32236 | 10.02205 | 25104 ft | 356 kts | 2° |
| 2026-04-18 22:57 | 57.34702 | 10.02506 | 25100 ft | 356 kts | 2° |
| 2026-04-18 22:57 | 57.37173 | 10.02807 | 25101 ft | 356 kts | 2° |
| 2026-04-18 22:57 | 57.39644 | 10.03110 | 25100 ft | 356 kts | 2° |
| 2026-04-18 22:57 | 57.42082 | 10.03408 | 25096 ft | 356 kts | 2° |
| 2026-04-18 22:58 | 57.44553 | 10.03711 | 25097 ft | 356 kts | 2° |
| 2026-04-18 22:58 | 57.47024 | 10.04014 | 25095 ft | 356 kts | 2° |
| 2026-04-18 22:58 | 57.49501 | 10.04318 | 25094 ft | 356 kts | 2° |
| 2026-04-18 22:58 | 57.51950 | 10.04620 | 25095 ft | 356 kts | 2° |
| 2026-04-18 22:59 | 57.54417 | 10.04924 | 25092 ft | 354 kts | 2° |
| 2026-04-18 22:59 | 57.56873 | 10.05227 | 25094 ft | 353 kts | 2° |
| 2026-04-18 22:59 | 57.59322 | 10.05530 | 25095 ft | 353 kts | 2° |
| 2026-04-18 22:59 | 57.61777 | 10.05834 | 25094 ft | 353 kts | 2° |
| 2026-04-18 23:00 | 57.64231 | 10.06138 | 25091 ft | 354 kts | 2° |
| 2026-04-18 23:00 | 57.66687 | 10.06443 | 25094 ft | 353 kts | 2° |
| 2026-04-18 23:00 | 57.69120 | 10.06745 | 25095 ft | 354 kts | 2° |
| 2026-04-18 23:00 | 57.71576 | 10.07051 | 25094 ft | 354 kts | 2° |
| 2026-04-18 23:01 | 57.74031 | 10.07357 | 25094 ft | 354 kts | 2° |
| 2026-04-18 23:01 | 57.76487 | 10.07663 | 25094 ft | 353 kts | 2° |
| 2026-04-18 23:01 | 57.78940 | 10.07970 | 25094 ft | 353 kts | 2° |
| 2026-04-18 23:01 | 57.81391 | 10.08276 | 25096 ft | 352 kts | 3° |
| 2026-04-18 23:02 | 57.83828 | 10.08582 | 25094 ft | 350 kts | 3° |
| 2026-04-18 23:02 | 57.86252 | 10.08886 | 25095 ft | 351 kts | 3° |
| 2026-04-18 23:02 | 57.88691 | 10.09192 | 25094 ft | 351 kts | 3° |
| 2026-04-18 23:02 | 57.91123 | 10.09498 | 25096 ft | 351 kts | 3° |
| 2026-04-18 23:03 | 57.93534 | 10.09802 | 25094 ft | 351 kts | 3° |
| 2026-04-18 23:03 | 57.95971 | 10.10109 | 25094 ft | 351 kts | 3° |
| 2026-04-18 23:03 | 57.98409 | 10.10418 | 25097 ft | 351 kts | 3° |
| 2026-04-18 23:03 | 58.00847 | 10.10726 | 25097 ft | 351 kts | 3° |
| 2026-04-18 23:04 | 58.03268 | 10.11033 | 25100 ft | 351 kts | 3° |
| 2026-04-18 23:04 | 58.05707 | 10.11342 | 25098 ft | 351 kts | 3° |
| 2026-04-18 23:04 | 58.08143 | 10.11651 | 25097 ft | 351 kts | 3° |
| 2026-04-18 23:04 | 58.10577 | 10.11961 | 25099 ft | 350 kts | 3° |
| 2026-04-18 23:05 | 58.13006 | 10.12271 | 25092 ft | 350 kts | 3° |
| 2026-04-18 23:05 | 58.15438 | 10.12581 | 25094 ft | 350 kts | 3° |
| 2026-04-18 23:05 | 58.17870 | 10.12891 | 25095 ft | 350 kts | 3° |
| 2026-04-18 23:05 | 58.20302 | 10.13202 | 25094 ft | 350 kts | 3° |
| 2026-04-18 23:06 | 58.22731 | 10.13513 | 25098 ft | 350 kts | 3° |
| 2026-04-18 23:06 | 58.25164 | 10.13826 | 25097 ft | 350 kts | 3° |
| 2026-04-18 23:06 | 58.27600 | 10.14138 | 25097 ft | 350 kts | 3° |
| 2026-04-18 23:06 | 58.30027 | 10.14451 | 25100 ft | 351 kts | 3° |
| 2026-04-18 23:07 | 58.32463 | 10.14764 | 25101 ft | 350 kts | 3° |
| 2026-04-18 23:07 | 58.34897 | 10.15081 | 25100 ft | 350 kts | 3° |
| 2026-04-18 23:07 | 58.37318 | 10.15401 | 25097 ft | 350 kts | 3° |
| 2026-04-18 23:07 | 58.39748 | 10.15718 | 25097 ft | 350 kts | 3° |
| 2026-04-18 23:08 | 58.42181 | 10.16034 | 25106 ft | 350 kts | 3° |
| 2026-04-18 23:08 | 58.44615 | 10.16349 | 25106 ft | 350 kts | 3° |
| 2026-04-18 23:08 | 58.47013 | 10.16660 | 25105 ft | 350 kts | 3° |
| 2026-04-18 23:08 | 58.49451 | 10.16976 | 25105 ft | 350 kts | 3° |
| 2026-04-18 23:09 | 58.51881 | 10.17291 | 25103 ft | 350 kts | 3° |
| 2026-04-18 23:09 | 58.54335 | 10.17610 | 25103 ft | 350 kts | 3° |
| 2026-04-18 23:09 | 58.56736 | 10.17922 | 25102 ft | 350 kts | 3° |
| 2026-04-18 23:09 | 58.59169 | 10.18239 | 25103 ft | 350 kts | 3° |
| 2026-04-18 23:10 | 58.61601 | 10.18556 | 25104 ft | 350 kts | 3° |
| 2026-04-18 23:10 | 58.64033 | 10.18874 | 25108 ft | 350 kts | 4° |
| 2026-04-18 23:10 | 58.66464 | 10.19192 | 25114 ft | 350 kts | 4° |
| 2026-04-18 23:10 | 58.68896 | 10.19511 | 25111 ft | 350 kts | 4° |
| 2026-04-18 23:11 | 58.71323 | 10.19829 | 25108 ft | 350 kts | 4° |
| 2026-04-18 23:11 | 58.73750 | 10.20148 | 25108 ft | 350 kts | 4° |
| 2026-04-18 23:11 | 58.76183 | 10.20468 | 25111 ft | 350 kts | 4° |
| 2026-04-18 23:11 | 58.78615 | 10.20789 | 25111 ft | 350 kts | 4° |
| 2026-04-18 23:12 | 58.81041 | 10.21109 | 25109 ft | 350 kts | 4° |
| 2026-04-18 23:12 | 58.83479 | 10.21431 | 25108 ft | 350 kts | 4° |
| 2026-04-18 23:12 | 58.85906 | 10.21752 | 25119 ft | 350 kts | 4° |
| 2026-04-18 23:12 | 58.88339 | 10.22075 | 25119 ft | 350 kts | 4° |
| 2026-04-18 23:13 | 58.90760 | 10.22396 | 25116 ft | 350 kts | 4° |
| 2026-04-18 23:13 | 58.93192 | 10.22720 | 25114 ft | 350 kts | 4° |
| 2026-04-18 23:13 | 58.95626 | 10.23046 | 25116 ft | 351 kts | 4° |
| 2026-04-18 23:13 | 58.98066 | 10.23378 | 25120 ft | 351 kts | 4° |
| 2026-04-18 23:14 | 59.00494 | 10.23708 | 25122 ft | 351 kts | 4° |
| 2026-04-18 23:14 | 59.02928 | 10.24037 | 25122 ft | 351 kts | 4° |
| 2026-04-18 23:14 | 59.05369 | 10.24367 | 25139 ft | 352 kts | 4° |
| 2026-04-18 23:14 | 59.07774 | 10.24692 | 25113 ft | 352 kts | 4° |
| 2026-04-18 23:15 | 59.10212 | 10.25022 | 25112 ft | 351 kts | 4° |
| 2026-04-18 23:15 | 59.12659 | 10.25354 | 25115 ft | 352 kts | 4° |
| 2026-04-18 23:15 | 59.15095 | 10.25796 | 25114 ft | 351 kts | 9° |
| 2026-04-18 23:15 | 59.17488 | 10.26744 | 25115 ft | 351 kts | 16° |
| 2026-04-18 23:16 | 59.19821 | 10.28113 | 25105 ft | 350 kts | 20° |
| 2026-04-18 23:16 | 59.22118 | 10.29656 | 25113 ft | 349 kts | 21° |
| 2026-04-18 23:16 | 59.24400 | 10.31234 | 25114 ft | 349 kts | 22° |
| 2026-04-18 23:16 | 59.26685 | 10.32834 | 25145 ft | 349 kts | 22° |
| 2026-04-18 23:17 | 59.28969 | 10.34445 | 25147 ft | 349 kts | 22° |
| 2026-04-18 23:17 | 59.31246 | 10.36057 | 25126 ft | 347 kts | 22° |
| 2026-04-18 23:17 | 59.33514 | 10.37666 | 25141 ft | 347 kts | 22° |
| 2026-04-18 23:17 | 59.35786 | 10.39282 | 25139 ft | 347 kts | 22° |
| 2026-04-18 23:18 | 59.38054 | 10.40897 | 25137 ft | 347 kts | 22° |
| 2026-04-18 23:18 | 59.40309 | 10.42506 | 25138 ft | 347 kts | 22° |
| 2026-04-18 23:18 | 59.42574 | 10.44124 | 25140 ft | 347 kts | 22° |
| 2026-04-18 23:18 | 59.44843 | 10.45748 | 25138 ft | 347 kts | 22° |
| 2026-04-18 23:19 | 59.47116 | 10.47376 | 25128 ft | 346 kts | 22° |
| 2026-04-18 23:19 | 59.49367 | 10.48991 | 25135 ft | 344 kts | 22° |
| 2026-04-18 23:19 | 59.51619 | 10.50610 | 25137 ft | 344 kts | 22° |
| 2026-04-18 23:19 | 59.53869 | 10.52230 | 25142 ft | 344 kts | 22° |
| 2026-04-18 23:20 | 59.56115 | 10.53849 | 25136 ft | 344 kts | 22° |
| 2026-04-18 23:20 | 59.58367 | 10.55474 | 25136 ft | 345 kts | 22° |
| 2026-04-18 23:20 | 59.60618 | 10.57101 | 25135 ft | 344 kts | 22° |
| 2026-04-18 23:20 | 59.62841 | 10.58710 | 25134 ft | 344 kts | 22° |
| 2026-04-18 23:21 | 59.65089 | 10.60340 | 25138 ft | 344 kts | 22° |
| 2026-04-18 23:21 | 59.67334 | 10.61970 | 25136 ft | 344 kts | 22° |
| 2026-04-18 23:21 | 59.69588 | 10.63609 | 25133 ft | 344 kts | 22° |
| 2026-04-18 23:21 | 59.71825 | 10.65238 | 25138 ft | 345 kts | 22° |
| 2026-04-18 23:22 | 59.74071 | 10.66876 | 25134 ft | 344 kts | 22° |
| 2026-04-18 23:22 | 59.76336 | 10.68437 | 25135 ft | 344 kts | 18° |
| 2026-04-18 23:22 | 59.78662 | 10.69578 | 25140 ft | 345 kts | 12° |
| 2026-04-18 23:23 | 59.83419 | 10.70961 | 25135 ft | 345 kts | 8° |
| 2026-04-18 23:23 | 59.85808 | 10.71544 | 25141 ft | 346 kts | 8° |
| 2026-04-18 23:23 | 59.88176 | 10.72105 | 25141 ft | 346 kts | 8° |
| 2026-04-18 23:23 | 59.90566 | 10.72664 | 25141 ft | 346 kts | 7° |
| 2026-04-18 23:24 | 59.92956 | 10.73220 | 25143 ft | 346 kts | 7° |
| 2026-04-18 23:24 | 59.95344 | 10.73775 | 25140 ft | 345 kts | 7° |
| 2026-04-18 23:24 | 59.97732 | 10.74329 | 25139 ft | 345 kts | 7° |
| 2026-04-18 23:24 | 60.00119 | 10.74884 | 25141 ft | 345 kts | 7° |
| 2026-04-18 23:25 | 60.02513 | 10.75442 | 25133 ft | 345 kts | 8° |
| 2026-04-18 23:25 | 60.04887 | 10.75995 | 25138 ft | 343 kts | 8° |
| 2026-04-18 23:25 | 60.07255 | 10.76548 | 25140 ft | 343 kts | 8° |
| 2026-04-18 23:25 | 60.09627 | 10.77103 | 25143 ft | 343 kts | 8° |
| 2026-04-18 23:26 | 60.11967 | 10.77651 | 25142 ft | 343 kts | 8° |
| 2026-04-18 23:26 | 60.14339 | 10.78207 | 25142 ft | 343 kts | 8° |
| 2026-04-18 23:26 | 60.16711 | 10.78764 | 25143 ft | 343 kts | 8° |
| 2026-04-18 23:26 | 60.19083 | 10.79322 | 25142 ft | 343 kts | 8° |
| 2026-04-18 23:27 | 60.21454 | 10.79881 | 25142 ft | 342 kts | 8° |
| 2026-04-18 23:27 | 60.23814 | 10.80438 | 25143 ft | 344 kts | 8° |
| 2026-04-18 23:27 | 60.26188 | 10.80999 | 25141 ft | 343 kts | 8° |
| 2026-04-18 23:27 | 60.28555 | 10.81559 | 25141 ft | 343 kts | 8° |
| 2026-04-18 23:28 | 60.30931 | 10.82123 | 25148 ft | 343 kts | 8° |
| 2026-04-18 23:28 | 60.33302 | 10.82686 | 25139 ft | 343 kts | 8° |
| 2026-04-18 23:28 | 60.35654 | 10.83339 | 25142 ft | 341 kts | 12° |
| 2026-04-18 23:28 | 60.37970 | 10.84370 | 25143 ft | 340 kts | 15° |
| 2026-04-18 23:29 | 60.40265 | 10.85504 | 25148 ft | 340 kts | 15° |
| 2026-04-18 23:29 | 60.42563 | 10.86652 | 25143 ft | 340 kts | 15° |
| 2026-04-18 23:29 | 60.44858 | 10.87806 | 25149 ft | 340 kts | 15° |
| 2026-04-18 23:29 | 60.46375 | 10.88573 | 25148 ft | 340 kts | 15° |
| 2026-04-18 23:30 | 60.48671 | 10.89735 | 25145 ft | 340 kts | 15° |
| 2026-04-18 23:30 | 60.50966 | 10.90898 | 25149 ft | 340 kts | 15° |
| 2026-04-18 23:30 | 60.54011 | 10.92447 | 25155 ft | 340 kts | 15° |
| 2026-04-18 23:30 | 60.55559 | 10.93235 | 25156 ft | 340 kts | 15° |
| 2026-04-18 23:31 | 60.57845 | 10.94400 | 25151 ft | 340 kts | 15° |
| 2026-04-18 23:31 | 60.60140 | 10.95573 | 25149 ft | 340 kts | 15° |
| 2026-04-18 23:31 | 60.62434 | 10.96746 | 25148 ft | 338 kts | 15° |
| 2026-04-18 23:31 | 60.64711 | 10.97912 | 25153 ft | 339 kts | 15° |
| 2026-04-18 23:32 | 60.66998 | 10.99086 | 25156 ft | 339 kts | 15° |
| 2026-04-18 23:32 | 60.69282 | 11.00259 | 25155 ft | 338 kts | 15° |
| 2026-04-18 23:32 | 60.71565 | 11.01434 | 25155 ft | 339 kts | 15° |
| 2026-04-18 23:32 | 60.73845 | 11.02609 | 25154 ft | 339 kts | 15° |
| 2026-04-18 23:33 | 60.76130 | 11.03789 | 25154 ft | 338 kts | 15° |
| 2026-04-18 23:33 | 60.78414 | 11.04969 | 25160 ft | 339 kts | 15° |
| 2026-04-18 23:33 | 60.80671 | 11.06150 | 25161 ft | 338 kts | 17° |
| 2026-04-18 23:33 | 60.82908 | 11.07643 | 25159 ft | 338 kts | 21° |
| 2026-04-18 23:34 | 60.85114 | 11.09299 | 25161 ft | 338 kts | 22° |
| 2026-04-18 23:34 | 60.87316 | 11.10959 | 25161 ft | 338 kts | 22° |
| 2026-04-18 23:34 | 60.89503 | 11.12613 | 25159 ft | 336 kts | 21° |
| 2026-04-18 23:34 | 60.91692 | 11.14272 | 25162 ft | 335 kts | 21° |
| 2026-04-18 23:35 | 60.93881 | 11.15935 | 25163 ft | 336 kts | 21° |
| 2026-04-18 23:35 | 60.96072 | 11.17602 | 25164 ft | 336 kts | 21° |
| 2026-04-18 23:35 | 60.98262 | 11.19270 | 25162 ft | 335 kts | 21° |
| 2026-04-18 23:35 | 61.00452 | 11.20941 | 25169 ft | 336 kts | 21° |
| 2026-04-18 23:36 | 61.02642 | 11.22615 | 25169 ft | 336 kts | 21° |
| 2026-04-18 23:36 | 61.04836 | 11.24295 | 25165 ft | 336 kts | 21° |
| 2026-04-18 23:36 | 61.07015 | 11.25965 | 25167 ft | 336 kts | 21° |
| 2026-04-18 23:36 | 61.09208 | 11.27649 | 25168 ft | 335 kts | 21° |
| 2026-04-18 23:37 | 61.11397 | 11.29333 | 25172 ft | 336 kts | 21° |
| 2026-04-18 23:37 | 61.13586 | 11.31019 | 25172 ft | 336 kts | 21° |
| 2026-04-18 23:37 | 61.15775 | 11.32707 | 25177 ft | 336 kts | 21° |
| 2026-04-18 23:37 | 61.17963 | 11.34397 | 25173 ft | 336 kts | 21° |
| 2026-04-18 23:38 | 61.20151 | 11.36091 | 25175 ft | 336 kts | 21° |
| 2026-04-18 23:38 | 61.22335 | 11.37783 | 25182 ft | 336 kts | 21° |
| 2026-04-18 23:38 | 61.24522 | 11.39480 | 25174 ft | 335 kts | 21° |
| 2026-04-18 23:38 | 61.26708 | 11.41179 | 25177 ft | 336 kts | 21° |
| 2026-04-18 23:39 | 61.28891 | 11.42879 | 25174 ft | 336 kts | 21° |
| 2026-04-18 23:39 | 61.31077 | 11.44583 | 25176 ft | 336 kts | 21° |
| 2026-04-18 23:39 | 61.33269 | 11.46295 | 25178 ft | 336 kts | 21° |
| 2026-04-18 23:39 | 61.35451 | 11.48001 | 25174 ft | 336 kts | 21° |
| 2026-04-18 23:40 | 61.37622 | 11.49702 | 25177 ft | 335 kts | 21° |
| 2026-04-18 23:40 | 61.39808 | 11.51416 | 25176 ft | 336 kts | 21° |
| 2026-04-18 23:40 | 61.41993 | 11.53133 | 25175 ft | 336 kts | 21° |
| 2026-04-18 23:40 | 61.44177 | 11.54851 | 25179 ft | 335 kts | 21° |
| 2026-04-18 23:41 | 61.46333 | 11.56550 | 25183 ft | 336 kts | 21° |
| 2026-04-18 23:41 | 61.48549 | 11.58299 | 25181 ft | 335 kts | 21° |
| 2026-04-18 23:41 | 61.50701 | 11.59999 | 25181 ft | 335 kts | 21° |
| 2026-04-18 23:41 | 61.52885 | 11.61728 | 25182 ft | 336 kts | 21° |
| 2026-04-18 23:42 | 61.55070 | 11.63461 | 25182 ft | 335 kts | 21° |
| 2026-04-18 23:42 | 61.57273 | 11.65210 | 25187 ft | 335 kts | 21° |
| 2026-04-18 23:42 | 61.59429 | 11.66924 | 25197 ft | 336 kts | 21° |
| 2026-04-18 23:42 | 61.61618 | 11.68668 | 25197 ft | 335 kts | 21° |
| 2026-04-18 23:43 | 61.63797 | 11.70406 | 25198 ft | 335 kts | 21° |
| 2026-04-18 23:43 | 61.65983 | 11.72152 | 25192 ft | 336 kts | 21° |
| 2026-04-18 23:43 | 61.68159 | 11.73894 | 25201 ft | 335 kts | 21° |
| 2026-04-18 23:43 | 61.70335 | 11.75637 | 25208 ft | 336 kts | 21° |
| 2026-04-18 23:44 | 61.72518 | 11.77389 | 25197 ft | 336 kts | 22° |
| 2026-04-18 23:44 | 61.74693 | 11.79137 | 25202 ft | 333 kts | 22° |
| 2026-04-18 23:44 | 61.76862 | 11.80884 | 25204 ft | 335 kts | 22° |
| 2026-04-18 23:44 | 61.79048 | 11.82646 | 25216 ft | 335 kts | 22° |
| 2026-04-18 23:45 | 61.81217 | 11.84398 | 25216 ft | 333 kts | 22° |
| 2026-04-18 23:45 | 61.83389 | 11.86154 | 25212 ft | 335 kts | 22° |
| 2026-04-18 23:45 | 61.85572 | 11.87922 | 25213 ft | 335 kts | 22° |
| 2026-04-18 23:45 | 61.87738 | 11.89679 | 25209 ft | 333 kts | 22° |
| 2026-04-18 23:46 | 61.89907 | 11.91441 | 25213 ft | 335 kts | 22° |
| 2026-04-18 23:46 | 61.92089 | 11.93218 | 25218 ft | 335 kts | 22° |
| 2026-04-18 23:46 | 61.94256 | 11.94983 | 25216 ft | 333 kts | 22° |
| 2026-04-18 23:46 | 61.96432 | 11.96759 | 25218 ft | 335 kts | 22° |
| 2026-04-18 23:47 | 61.98604 | 11.98535 | 25218 ft | 333 kts | 22° |
| 2026-04-18 23:47 | 62.00737 | 12.00282 | 25223 ft | 333 kts | 21° |
| 2026-04-18 23:47 | 62.02900 | 12.02055 | 25226 ft | 335 kts | 22° |
| 2026-04-18 23:47 | 62.05066 | 12.03834 | 25223 ft | 331 kts | 22° |
| 2026-04-18 23:48 | 62.07219 | 12.05605 | 25222 ft | 332 kts | 22° |
| 2026-04-18 23:48 | 62.09410 | 12.07410 | 25226 ft | 334 kts | 22° |
| 2026-04-18 23:48 | 62.11545 | 12.09171 | 25224 ft | 332 kts | 22° |
| 2026-04-18 23:48 | 62.13690 | 12.10944 | 25231 ft | 332 kts | 22° |
| 2026-04-18 23:49 | 62.15852 | 12.12733 | 25240 ft | 334 kts | 22° |
| 2026-04-18 23:49 | 62.18008 | 12.14520 | 25231 ft | 332 kts | 22° |
| 2026-04-18 23:49 | 62.20160 | 12.16307 | 25231 ft | 332 kts | 22° |
| 2026-04-18 23:49 | 62.22325 | 12.18107 | 25233 ft | 334 kts | 22° |
| 2026-04-18 23:50 | 62.24489 | 12.19909 | 25236 ft | 333 kts | 22° |
| 2026-04-18 23:50 | 62.26649 | 12.21710 | 25234 ft | 334 kts | 22° |
| 2026-04-18 23:50 | 62.28870 | 12.23200 | 25227 ft | 335 kts | 8° |
| 2026-04-18 23:50 | 62.31164 | 12.22935 | 25229 ft | 329 kts | 343° |
| 2026-04-18 23:51 | 62.33173 | 12.20671 | 25224 ft | 328 kts | 317° |
| 2026-04-18 23:51 | 62.34708 | 12.17039 | 25234 ft | 329 kts | 307° |
| 2026-04-18 23:51 | 62.36089 | 12.13107 | 25238 ft | 330 kts | 305° |
| 2026-04-18 23:51 | 62.37428 | 12.09090 | 25238 ft | 330 kts | 303° |
| 2026-04-18 23:52 | 62.38743 | 12.05027 | 25222 ft | 330 kts | 303° |
| 2026-04-18 23:52 | 62.40041 | 12.00954 | 25222 ft | 330 kts | 303° |
| 2026-04-18 23:52 | 62.41332 | 11.96865 | 25221 ft | 330 kts | 303° |
| 2026-04-18 23:52 | 62.42617 | 11.92772 | 25221 ft | 329 kts | 302° |
| 2026-04-18 23:53 | 62.43899 | 11.88678 | 25219 ft | 329 kts | 302° |
| 2026-04-18 23:53 | 62.45178 | 11.84582 | 25228 ft | 329 kts | 302° |
| 2026-04-18 23:53 | 62.46456 | 11.80481 | 25214 ft | 329 kts | 302° |
| 2026-04-18 23:53 | 62.47738 | 11.76356 | 25209 ft | 332 kts | 302° |
| 2026-04-18 23:54 | 62.49046 | 11.72225 | 25188 ft | 331 kts | 310° |
| 2026-04-18 23:54 | 62.50342 | 11.68105 | 25066 ft | 334 kts | 309° |
| 2026-04-18 23:54 | 62.51629 | 11.63945 | 24538 ft | 329 kts | 302° |
| 2026-04-18 23:54 | 62.52874 | 11.59768 | 24057 ft | 338 kts | 301° |
| 2026-04-18 23:55 | 62.54196 | 11.55474 | 23581 ft | 354 kts | 302° |
| 2026-04-18 23:55 | 62.55560 | 11.51030 | 22978 ft | 351 kts | 302° |
| 2026-04-18 23:55 | 62.56898 | 11.46670 | 22452 ft | 344 kts | 302° |
| 2026-04-18 23:55 | 62.58214 | 11.42370 | 21912 ft | 339 kts | 302° |
| 2026-04-18 23:56 | 62.59507 | 11.38141 | 21393 ft | 334 kts | 302° |
| 2026-04-18 23:56 | 62.60818 | 11.34033 | 20884 ft | 328 kts | 304° |
| 2026-04-18 23:56 | 62.62066 | 11.29951 | 20404 ft | 323 kts | 310° |
| 2026-04-18 23:56 | 62.63312 | 11.25951 | 19894 ft | 318 kts | 310° |
| 2026-04-18 23:57 | 62.64520 | 11.21990 | 19441 ft | 313 kts | 310° |
| 2026-04-18 23:57 | 62.65697 | 11.18034 | 18990 ft | 309 kts | 303° |
| 2026-04-18 23:57 | 62.66824 | 11.14074 | 18555 ft | 308 kts | 301° |
| 2026-04-18 23:57 | 62.67980 | 11.10201 | 18055 ft | 309 kts | 301° |
| 2026-04-18 23:58 | 62.69158 | 11.06289 | 17538 ft | 309 kts | 302° |
| 2026-04-18 23:58 | 62.70337 | 11.02372 | 17021 ft | 311 kts | 302° |
| 2026-04-18 23:58 | 62.71538 | 10.98371 | 16500 ft | 317 kts | 302° |
| 2026-04-18 23:58 | 62.72738 | 10.94372 | 16007 ft | 314 kts | 302° |
| 2026-04-18 23:59 | 62.73928 | 10.90404 | 15522 ft | 312 kts | 302° |
| 2026-04-18 23:59 | 62.75114 | 10.86436 | 15040 ft | 311 kts | 302° |
| 2026-04-18 23:59 | 62.76292 | 10.82491 | 14568 ft | 309 kts | 302° |
| 2026-04-18 23:59 | 62.77464 | 10.78559 | 14112 ft | 308 kts | 302° |
| 2026-04-19 00:00 | 62.78629 | 10.74642 | 13597 ft | 306 kts | 302° |
| 2026-04-19 00:00 | 62.79781 | 10.70764 | 13079 ft | 303 kts | 302° |
| 2026-04-19 00:00 | 62.80919 | 10.66927 | 12572 ft | 299 kts | 302° |
| 2026-04-19 00:00 | 62.82039 | 10.63141 | 12078 ft | 295 kts | 302° |
| 2026-04-19 00:01 | 62.83149 | 10.59385 | 11591 ft | 292 kts | 302° |
| 2026-04-19 00:01 | 62.84245 | 10.55666 | 11108 ft | 289 kts | 302° |
| 2026-04-19 00:01 | 62.85322 | 10.51973 | 10639 ft | 288 kts | 302° |
| 2026-04-19 00:01 | 62.86356 | 10.48295 | 10158 ft | 285 kts | 302° |
| 2026-04-19 00:02 | 62.87380 | 10.44601 | 9684 ft | 284 kts | 302° |
| 2026-04-19 00:02 | 62.88430 | 10.40851 | 9395 ft | 285 kts | 302° |
| 2026-04-19 00:02 | 62.89482 | 10.37121 | 9179 ft | 289 kts | 303° |
| 2026-04-19 00:02 | 62.90531 | 10.33486 | 9015 ft | 286 kts | 301° |
| 2026-04-19 00:03 | 62.91661 | 10.29880 | 8878 ft | 287 kts | 302° |
| 2026-04-19 00:03 | 62.92792 | 10.26275 | 8729 ft | 286 kts | 301° |
| 2026-04-19 00:03 | 62.93892 | 10.22654 | 8593 ft | 285 kts | 300° |
| 2026-04-19 00:03 | 62.94968 | 10.19028 | 8464 ft | 284 kts | 300° |
| 2026-04-19 00:04 | 62.96049 | 10.15417 | 8301 ft | 280 kts | 300° |
| 2026-04-19 00:04 | 62.97081 | 10.11778 | 8188 ft | 281 kts | 299° |
| 2026-04-19 00:04 | 62.98127 | 10.08143 | 8070 ft | 281 kts | 299° |
| 2026-04-19 00:04 | 62.99175 | 10.04520 | 7924 ft | 280 kts | 299° |
| 2026-04-19 00:05 | 63.00223 | 10.00887 | 7785 ft | 281 kts | 299° |
| 2026-04-19 00:05 | 63.01264 | 9.97267 | 7648 ft | 280 kts | 298° |
| 2026-04-19 00:05 | 63.02302 | 9.93650 | 7507 ft | 279 kts | 298° |
| 2026-04-19 00:05 | 63.03334 | 9.90046 | 7356 ft | 277 kts | 298° |
| 2026-04-19 00:06 | 63.04362 | 9.86463 | 7213 ft | 276 kts | 299° |
| 2026-04-19 00:06 | 63.05378 | 9.82899 | 7074 ft | 275 kts | 298° |
| 2026-04-19 00:06 | 63.06392 | 9.79338 | 6959 ft | 271 kts | 299° |
| 2026-04-19 00:06 | 63.07392 | 9.75817 | 6798 ft | 271 kts | 299° |
| 2026-04-19 00:07 | 63.08390 | 9.72298 | 6623 ft | 270 kts | 299° |
| 2026-04-19 00:07 | 63.09382 | 9.68796 | 6498 ft | 268 kts | 299° |
| 2026-04-19 00:07 | 63.10485 | 9.65531 | 6336 ft | 272 kts | 314° |
| 2026-04-19 00:07 | 63.12108 | 9.63424 | 6230 ft | 273 kts | 342° |
| 2026-04-19 00:08 | 63.13965 | 9.62598 | 6147 ft | 272 kts | 352° |
| 2026-04-19 00:08 | 63.15849 | 9.62092 | 6069 ft | 272 kts | 354° |
| 2026-04-19 00:08 | 63.17732 | 9.61668 | 5972 ft | 272 kts | 354° |
| 2026-04-19 00:08 | 63.19613 | 9.61282 | 5947 ft | 271 kts | 355° |
| 2026-04-19 00:09 | 63.21496 | 9.60914 | 5940 ft | 271 kts | 355° |
| 2026-04-19 00:09 | 63.23379 | 9.60557 | 5944 ft | 272 kts | 355° |
| 2026-04-19 00:09 | 63.25268 | 9.60204 | 5950 ft | 272 kts | 355° |
| 2026-04-19 00:09 | 63.27151 | 9.59855 | 5943 ft | 272 kts | 355° |
| 2026-04-19 00:10 | 63.29034 | 9.59507 | 5947 ft | 272 kts | 355° |
| 2026-04-19 00:10 | 63.30917 | 9.59159 | 5949 ft | 272 kts | 355° |
| 2026-04-19 00:10 | 63.32806 | 9.58810 | 5936 ft | 273 kts | 355° |
| 2026-04-19 00:10 | 63.34689 | 9.58462 | 5942 ft | 272 kts | 355° |
| 2026-04-19 00:11 | 63.36580 | 9.58111 | 5942 ft | 272 kts | 355° |
| 2026-04-19 00:11 | 63.38439 | 9.57767 | 5944 ft | 271 kts | 355° |
| 2026-04-19 00:11 | 63.40320 | 9.57416 | 5948 ft | 273 kts | 355° |
| 2026-04-19 00:11 | 63.42206 | 9.57064 | 5998 ft | 272 kts | 355° |
| 2026-04-19 00:12 | 63.44115 | 9.56615 | 6005 ft | 272 kts | 351° |
| 2026-04-19 00:12 | 63.45937 | 9.55673 | 6002 ft | 273 kts | 343° |
| 2026-04-19 00:12 | 63.47722 | 9.54357 | 6008 ft | 271 kts | 341° |
| 2026-04-19 00:12 | 63.49504 | 9.52957 | 5869 ft | 272 kts | 341° |
| 2026-04-19 00:13 | 63.51228 | 9.51595 | 5555 ft | 253 kts | 340° |
| 2026-04-19 00:13 | 63.52839 | 9.50318 | 5251 ft | 240 kts | 341° |
| 2026-04-19 00:13 | 63.54380 | 9.49094 | 4951 ft | 233 kts | 340° |
| 2026-04-19 00:13 | 63.55918 | 9.47872 | 4730 ft | 236 kts | 340° |
| 2026-04-19 00:14 | 63.57454 | 9.46648 | 4595 ft | 232 kts | 340° |
| 2026-04-19 00:14 | 63.58978 | 9.45432 | 4454 ft | 235 kts | 340° |
| 2026-04-19 00:14 | 63.60503 | 9.44214 | 4332 ft | 230 kts | 340° |
| 2026-04-19 00:14 | 63.62015 | 9.43005 | 4190 ft | 230 kts | 340° |
| 2026-04-19 00:15 | 63.63539 | 9.41783 | 4061 ft | 230 kts | 340° |
| 2026-04-19 00:15 | 63.65035 | 9.40582 | 3922 ft | 230 kts | 340° |
| 2026-04-19 00:15 | 63.66553 | 9.39360 | 3781 ft | 232 kts | 339° |
| 2026-04-19 00:15 | 63.68051 | 9.38126 | 3637 ft | 229 kts | 338° |
| 2026-04-19 00:16 | 63.69542 | 9.36886 | 3473 ft | 227 kts | 339° |
| 2026-04-19 00:16 | 63.71019 | 9.35658 | 3328 ft | 227 kts | 339° |
| 2026-04-19 00:16 | 63.72513 | 9.34418 | 3183 ft | 228 kts | 338° |
| 2026-04-19 00:16 | 63.73993 | 9.33190 | 3033 ft | 228 kts | 338° |
| 2026-04-19 00:17 | 63.75474 | 9.31959 | 2986 ft | 226 kts | 340° |
| 2026-04-19 00:17 | 63.76955 | 9.30730 | 2975 ft | 227 kts | 340° |
| 2026-04-19 00:17 | 63.77942 | 9.29929 | 2977 ft | 229 kts | 343° |
| 2026-04-19 00:17 | 63.79514 | 9.29635 | 2906 ft | 229 kts | 12° |
| 2026-04-19 00:18 | 63.80850 | 9.31281 | 2661 ft | 224 kts | 48° |
| 2026-04-19 00:18 | 63.81706 | 9.34186 | 2412 ft | 222 kts | 64° |
| 2026-04-19 00:18 | 63.82391 | 9.37306 | 2168 ft | 222 kts | 68° |
| 2026-04-19 00:18 | 63.83004 | 9.40472 | 2025 ft | 214 kts | 79° |
| 2026-04-19 00:19 | 63.83079 | 9.43530 | 1971 ft | 182 kts | 108° |
| 2026-04-19 00:19 | 63.82528 | 9.45943 | 1969 ft | 170 kts | 138° |
| 2026-04-19 00:19 | 63.81576 | 9.47428 | 1895 ft | 165 kts | 155° |
| 2026-04-19 00:19 | 63.80573 | 9.48571 | 1794 ft | 152 kts | 156° |
| 2026-04-19 00:20 | 63.79696 | 9.49560 | 1698 ft | 135 kts | 156° |
| 2026-04-19 00:20 | 63.78861 | 9.50494 | 1586 ft | 134 kts | 156° |
| 2026-04-19 00:20 | 63.78026 | 9.51425 | 1438 ft | 133 kts | 156° |
| 2026-04-19 00:20 | 63.77195 | 9.52341 | 1254 ft | 132 kts | 156° |
| 2026-04-19 00:21 | 63.76368 | 9.53257 | 1081 ft | 133 kts | 156° |
| 2026-04-19 00:21 | 63.75561 | 9.54116 | 966 ft | 128 kts | 154° |
| 2026-04-19 00:21 | 63.74769 | 9.54982 | 824 ft | 120 kts | 152° |
| 2026-04-19 00:21 | 63.74035 | 9.55822 | 687 ft | 121 kts | 153° |
| 2026-04-19 00:22 | 63.73266 | 9.56654 | 516 ft | 123 kts | 151° |
| 2026-04-19 00:22 | 63.72474 | 9.57548 | 336 ft | 131 kts | 150° |
| 2026-04-19 00:22 | 63.71667 | 9.58445 | 157 ft | 126 kts | 150° |
| 2026-04-19 00:22 | 63.70907 | 9.59281 | 35 ft | 121 kts | 150° |
| 2026-04-19 00:23 | 63.70189 | 9.60084 | 27 ft | 90 kts | 154° |
| 2026-04-19 00:23 | 63.69815 | 9.60487 | 31 ft | 32 kts | 153° |
| 2026-04-19 00:23 | 63.69735 | 9.60570 | 31 ft | 12 kts | 155° |
| 2026-04-19 00:23 | 63.69639 | 9.60675 | 31 ft | 13 kts | 153° |
| 2026-04-19 00:24 | 63.69573 | 9.60760 | 31 ft | 14 kts | 137° |
| 2026-04-19 00:24 | 63.69560 | 9.60953 | 31 ft | 0 kts | 89° |
| 2026-04-19 00:24 | 63.69562 | 9.61064 | 31 ft | 15 kts | 86° |
| 2026-04-19 00:24 | 63.69577 | 9.61236 | 32 ft | 9 kts | 50° |
| 2026-04-19 00:25 | 63.69639 | 9.61279 | 31 ft | 10 kts | 19° |
| 2026-04-19 00:25 | 63.69657 | 9.61399 | 31 ft | 7 kts | 92° |
| 2026-04-19 00:25 | 63.69655 | 9.61458 | 32 ft | 1 kts | 95° |
| 2026-04-19 00:25 | 63.69653 | 9.61524 | 32 ft | 5 kts | 95° |
| 2026-04-19 00:26 | 63.69650 | 9.61595 | 33 ft | 0 kts | 96° |